Time;durP1;ratioP1;P1;durP2;ratioP2;P2;SDS_P1;SDS_P2;PMS_P1;PMS_P2;Temp;Humidity;BMP_temperature;BMP_pressure;BME280_temperature;BME280_humidity;BME280_pressure;Samples;Min_cycle;Max_cycle;Signal;HPM_P1;HPM_P2
2023/03/15 00:01:10;;;;;;;1.17;0.40;;;;;9.20;100949.00;;;;5050546;28;20195;-78
2023/03/15 00:03:38;;;;;;;1.70;0.60;;;;;9.20;100950.00;;;;5036864;28;20219;-77
2023/03/15 00:06:06;;;;;;;1.27;0.43;;;;;9.20;100948.00;;;;5029829;28;20208;-78
2023/03/15 00:08:34;;;;;;;1.05;0.50;;;;;9.20;100953.00;;;;5043674;28;20299;-78
2023/03/15 00:11:01;;;;;;;0.60;0.50;;;;;9.20;100955.00;;;;5042779;28;20208;-78
2023/03/15 00:13:30;;;;;;;0.43;0.20;;;;;9.20;100953.00;;;;5041938;28;20650;-78
2023/03/15 00:15:59;;;;;;;1.17;0.50;;;;;9.20;100957.00;;;;5040556;28;20228;-78
2023/03/15 00:18:27;;;;;;;0.77;0.40;;;;;9.30;100955.00;;;;5047346;28;20211;-77
2023/03/15 00:20:55;;;;;;;1.17;0.30;;;;;9.30;100955.00;;;;5033802;28;20204;-78
2023/03/15 00:23:22;;;;;;;1.10;0.45;;;;;9.30;100960.00;;;;5035056;28;20200;-78
2023/03/15 00:25:51;;;;;;;0.80;0.50;;;;;9.30;100963.00;;;;5049749;28;20218;-78
2023/03/15 00:28:18;;;;;;;0.60;0.40;;;;;9.40;100962.00;;;;5046881;28;20238;-77
2023/03/15 00:30:47;;;;;;;0.90;0.35;;;;;9.30;100952.00;;;;5045013;28;20202;-78
2023/03/15 00:33:15;;;;;;;0.60;0.35;;;;;9.40;100952.00;;;;5039744;28;20204;-78
2023/03/15 00:35:43;;;;;;;1.23;0.30;;;;;9.30;100952.00;;;;5048866;28;20230;-78
2023/03/15 00:38:12;;;;;;;0.90;0.35;;;;;9.30;100950.00;;;;5036665;28;20219;-78
2023/03/15 00:40:39;;;;;;;0.45;0.40;;;;;9.30;100946.00;;;;5042971;28;20567;-77
2023/03/15 00:43:07;;;;;;;0.45;0.45;;;;;9.30;100946.00;;;;5045376;28;20723;-77
2023/03/15 00:45:34;;;;;;;1.60;0.43;;;;;9.20;100954.00;;;;5049958;28;20215;-78
2023/03/15 00:48:03;;;;;;;0.63;0.30;;;;;9.20;100965.00;;;;5045720;28;20207;-77
2023/03/15 00:50:30;;;;;;;0.65;0.43;;;;;9.20;100970.00;;;;5029935;28;20520;-77
2023/03/15 00:52:57;;;;;;;0.70;0.30;;;;;9.20;100974.00;;;;5029391;28;20189;-77
2023/03/15 00:55:25;;;;;;;1.02;0.30;;;;;9.20;100980.00;;;;5047164;28;20215;-77
2023/03/15 00:57:53;;;;;;;0.32;0.22;;;;;9.10;100979.00;;;;5049257;28;20203;-77
2023/03/15 01:00:23;;;;;;;0.95;0.20;;;;;9.10;100990.00;;;;5049004;28;20199;-77
2023/03/15 01:02:50;;;;;;;0.20;0.10;;;;;9.10;100985.00;;;;5048665;28;20195;-77
2023/03/15 01:05:19;;;;;;;1.00;0.20;;;;;9.00;100980.00;;;;5043396;28;20204;-76
2023/03/15 01:07:47;;;;;;;0.50;0.30;;;;;9.10;100987.00;;;;5028906;28;20224;-77
2023/03/15 01:10:15;;;;;;;0.52;0.20;;;;;9.00;100991.00;;;;5044246;28;20196;-77
2023/03/15 01:12:42;;;;;;;0.45;0.20;;;;;9.00;101000.00;;;;5041617;28;20644;-77
2023/03/15 01:15:13;;;;;;;0.43;0.20;;;;;9.00;101006.00;;;;5049024;28;20223;-76
2023/03/15 01:17:40;;;;;;;0.50;0.30;;;;;9.00;101001.00;;;;5048827;28;20585;-76
2023/03/15 01:20:10;;;;;;;0.50;0.13;;;;;9.00;101004.00;;;;5047812;28;20196;-77
2023/03/15 01:22:38;;;;;;;0.75;0.32;;;;;9.00;101008.00;;;;5042081;28;20291;-76
2023/03/15 01:25:06;;;;;;;0.57;0.22;;;;;9.00;101001.00;;;;5047510;28;20200;-76
2023/03/15 01:27:34;;;;;;;0.40;0.40;;;;;9.00;101006.00;;;;5048403;28;20224;-76
2023/03/15 01:30:01;;;;;;;0.40;0.30;;;;;9.10;101006.00;;;;5044831;28;20207;-76
2023/03/15 01:32:28;;;;;;;0.73;0.35;;;;;9.10;101005.00;;;;5048143;28;20210;-77
2023/03/15 01:34:55;;;;;;;1.25;0.20;;;;;9.10;101018.00;;;;5046271;28;20566;-76
2023/03/15 01:37:23;;;;;;;1.05;0.20;;;;;9.10;101017.00;;;;5048069;28;20608;-77
2023/03/15 01:39:52;;;;;;;0.60;0.30;;;;;9.10;101021.00;;;;5038724;28;20254;-77
2023/03/15 01:42:19;;;;;;;0.80;0.20;;;;;9.20;101026.00;;;;5040365;28;20199;-77
2023/03/15 01:44:53;;;;;;;0.40;0.13;;;;;9.10;101025.00;;;;5046855;28;20669;-77
2023/03/15 01:47:21;;;;;;;0.85;0.20;;;;;9.20;101036.00;;;;5047972;28;20557;-77
2023/03/15 01:49:56;;;;;;;0.40;0.30;;;;;9.10;101036.00;;;;5047525;28;20666;-77
2023/03/15 01:52:29;;;;;;;0.40;0.32;;;;;9.20;101040.00;;;;5046976;28;20203;-77
2023/03/15 01:55:04;;;;;;;0.28;0.10;;;;;9.20;101033.00;;;;5048528;28;20202;-77
2023/03/15 01:57:35;;;;;;;0.57;0.40;;;;;9.20;101045.00;;;;5034029;28;20212;-77
2023/03/15 02:00:10;;;;;;;0.77;0.35;;;;;9.20;101036.00;;;;5041472;28;20665;-77
2023/03/15 02:02:45;;;;;;;1.52;0.50;;;;;9.30;101044.00;;;;5048195;28;20218;-77
2023/03/15 02:05:18;;;;;;;1.10;0.32;;;;;9.20;101039.00;;;;5046383;28;20282;-77
2023/03/15 02:07:48;;;;;;;1.23;0.38;;;;;9.30;101035.00;;;;5047536;28;20227;-77
2023/03/15 02:10:23;;;;;;;0.80;0.50;;;;;9.30;101046.00;;;;5044997;28;20196;-77
2023/03/15 02:12:52;;;;;;;1.55;0.30;;;;;9.30;101054.00;;;;5042387;28;20194;-77
2023/03/15 02:15:20;;;;;;;0.32;0.30;;;;;9.30;101045.00;;;;5036617;28;20288;-77
2023/03/15 02:17:49;;;;;;;0.82;0.50;;;;;9.30;101047.00;;;;5047508;28;20191;-77
2023/03/15 02:20:29;;;;;;;0.77;0.47;;;;;9.20;101048.00;;;;5047155;28;20203;-77
2023/03/15 02:22:59;;;;;;;1.02;0.50;;;;;9.20;101052.00;;;;5044435;28;20290;-77
2023/03/15 02:25:37;;;;;;;0.63;0.60;;;;;9.10;101059.00;;;;5048114;28;20202;-77
2023/03/15 02:28:10;;;;;;;0.73;0.50;;;;;9.10;101067.00;;;;5046633;28;20222;-77
2023/03/15 02:30:37;;;;;;;1.05;0.47;;;;;9.10;101066.00;;;;5045518;28;20207;-77
2023/03/15 02:33:08;;;;;;;0.77;0.60;;;;;9.10;101061.00;;;;5045684;28;20215;-76
2023/03/15 02:35:36;;;;;;;0.63;0.50;;;;;9.00;101070.00;;;;5047014;28;20685;-77
2023/03/15 02:38:03;;;;;;;0.93;0.32;;;;;9.00;101073.00;;;;5047657;28;20569;-77
2023/03/15 02:40:32;;;;;;;1.35;0.57;;;;;9.00;101075.00;;;;5046470;28;20505;-77
2023/03/15 02:43:04;;;;;;;1.17;0.70;;;;;8.90;101081.00;;;;5047242;28;20206;-77
2023/03/15 02:45:33;;;;;;;1.10;0.70;;;;;8.90;101084.00;;;;5047264;28;20210;-77
2023/03/15 02:48:03;;;;;;;0.75;0.50;;;;;8.90;101088.00;;;;5042416;28;20286;-77
2023/03/15 02:50:30;;;;;;;4.53;0.47;;;;;8.90;101099.00;;;;5047155;28;20207;-77
2023/03/15 02:52:57;;;;;;;2.17;0.45;;;;;8.80;101088.00;;;;5047699;28;20210;-77
2023/03/15 02:55:25;;;;;;;0.90;0.60;;;;;8.80;101089.00;;;;5047877;28;20227;-77
2023/03/15 02:57:52;;;;;;;1.00;0.75;;;;;8.80;101100.00;;;;5046048;28;20218;-77
2023/03/15 03:00:20;;;;;;;0.77;0.68;;;;;8.70;101113.00;;;;5042944;28;20203;-77
2023/03/15 03:02:49;;;;;;;1.23;0.68;;;;;8.70;101112.00;;;;5041097;28;20576;-77
2023/03/15 03:05:17;;;;;;;0.80;0.65;;;;;8.70;101128.00;;;;5043273;28;20192;-77
2023/03/15 03:07:44;;;;;;;2.65;0.70;;;;;8.70;101124.00;;;;5043899;28;20227;-77
2023/03/15 03:10:15;;;;;;;0.82;0.65;;;;;8.60;101126.00;;;;5045047;28;20196;-77
2023/03/15 03:12:42;;;;;;;1.67;0.93;;;;;8.60;101132.00;;;;5043616;28;20210;-77
2023/03/15 03:15:10;;;;;;;1.92;1.00;;;;;8.60;101134.00;;;;5046806;28;20207;-77
2023/03/15 03:17:38;;;;;;;1.98;1.33;;;;;8.60;101142.00;;;;5039003;28;20210;-77
2023/03/15 03:20:09;;;;;;;1.92;0.73;;;;;8.60;101138.00;;;;5051732;28;20199;-77
2023/03/15 03:22:37;;;;;;;1.13;0.98;;;;;8.60;101139.00;;;;5048580;28;20231;-77
2023/03/15 03:25:05;;;;;;;1.48;1.00;;;;;8.60;101140.00;;;;5050896;28;20230;-77
2023/03/15 03:27:35;;;;;;;1.15;1.02;;;;;8.50;101149.00;;;;5051186;28;20226;-77
2023/03/15 03:30:03;;;;;;;1.40;1.30;;;;;8.50;101151.00;;;;5051050;28;20199;-77
2023/03/15 03:32:30;;;;;;;1.38;1.27;;;;;8.50;101154.00;;;;5050334;28;20199;-77
2023/03/15 03:34:57;;;;;;;1.95;1.40;;;;;8.50;101157.00;;;;5050519;28;20196;-77
2023/03/15 03:37:26;;;;;;;1.80;1.58;;;;;8.40;101160.00;;;;5051604;28;20235;-77
2023/03/15 03:39:53;;;;;;;1.55;1.45;;;;;8.40;101164.00;;;;5041406;28;20192;-77
2023/03/15 03:42:21;;;;;;;2.08;1.77;;;;;8.40;101168.00;;;;5049802;28;20215;-77
2023/03/15 03:44:49;;;;;;;1.40;1.27;;;;;8.40;101168.00;;;;5048471;28;20203;-77
2023/03/15 03:47:16;;;;;;;1.40;1.30;;;;;8.40;101181.00;;;;5050185;28;20207;-77
2023/03/15 03:49:43;;;;;;;2.00;1.67;;;;;8.30;101182.00;;;;5051291;28;20233;-77
2023/03/15 03:52:11;;;;;;;1.70;1.52;;;;;8.30;101195.00;;;;5049753;28;20195;-77
2023/03/15 03:54:41;;;;;;;1.50;1.40;;;;;8.30;101198.00;;;;5051326;28;20200;-77
2023/03/15 03:57:09;;;;;;;2.50;1.80;;;;;8.20;101195.00;;;;5044299;28;20300;-77
2023/03/15 03:59:36;;;;;;;1.95;1.70;;;;;8.20;101192.00;;;;5049397;28;20199;-77
2023/03/15 04:02:03;;;;;;;1.92;1.48;;;;;8.20;101188.00;;;;5049748;28;20206;-77
2023/03/15 04:04:31;;;;;;;1.52;1.42;;;;;8.20;101194.00;;;;5049758;28;20210;-77
2023/03/15 04:06:58;;;;;;;1.58;1.40;;;;;8.10;101193.00;;;;5048375;28;20231;-77
2023/03/15 04:09:25;;;;;;;5.35;1.73;;;;;8.10;101198.00;;;;5049165;28;20207;-77
2023/03/15 04:11:54;;;;;;;1.85;1.27;;;;;8.10;101204.00;;;;5048311;28;20612;-77
2023/03/15 04:14:21;;;;;;;2.13;1.65;;;;;8.00;101207.00;;;;5050908;28;20203;-77
2023/03/15 04:16:48;;;;;;;1.92;1.40;;;;;8.00;101210.00;;;;5048545;28;20211;-77
2023/03/15 04:19:16;;;;;;;1.95;1.60;;;;;8.00;101216.00;;;;5039929;28;20200;-77
2023/03/15 04:21:45;;;;;;;1.40;1.25;;;;;8.00;101220.00;;;;5048991;28;20196;-77
2023/03/15 04:24:13;;;;;;;2.00;1.50;;;;;7.90;101219.00;;;;5043829;28;20758;-77
2023/03/15 04:26:41;;;;;;;2.63;1.85;;;;;7.90;101226.00;;;;5041965;28;20332;-77
2023/03/15 04:29:13;;;;;;;2.17;1.40;;;;;7.90;101233.00;;;;5043059;28;20207;-77
2023/03/15 04:31:41;;;;;;;1.58;1.30;;;;;7.90;101235.00;;;;5041234;28;20573;-77
2023/03/15 04:34:09;;;;;;;2.03;1.60;;;;;7.80;101232.00;;;;5049508;28;20650;-77
2023/03/15 04:36:36;;;;;;;3.58;1.85;;;;;7.80;101238.00;;;;5050159;28;20238;-77
2023/03/15 04:39:06;;;;;;;2.75;1.58;;;;;7.80;101248.00;;;;5045974;28;20196;-77
2023/03/15 04:41:34;;;;;;;1.52;1.42;;;;;7.80;101244.00;;;;5044717;28;20207;-77
2023/03/15 04:44:02;;;;;;;2.45;2.25;;;;;7.80;101250.00;;;;5048234;28;20200;-77
2023/03/15 04:46:31;;;;;;;2.80;1.58;;;;;7.80;101248.00;;;;5047816;28;20199;-77
2023/03/15 04:48:58;;;;;;;2.50;1.92;;;;;7.80;101257.00;;;;5048962;28;20202;-77
2023/03/15 04:51:26;;;;;;;1.50;1.40;;;;;7.80;101252.00;;;;5047506;28;20208;-77
2023/03/15 04:53:53;;;;;;;1.73;1.50;;;;;7.80;101260.00;;;;5046910;28;20662;-77
2023/03/15 04:56:20;;;;;;;2.10;1.80;;;;;7.70;101261.00;;;;5039304;28;20239;-77
2023/03/15 04:58:48;;;;;;;1.98;1.77;;;;;7.70;101268.00;;;;5039486;28;20199;-77
2023/03/15 05:01:15;;;;;;;1.73;1.63;;;;;7.70;101275.00;;;;5046742;28;20195;-77
2023/03/15 05:03:44;;;;;;;1.80;1.50;;;;;7.70;101277.00;;;;5047569;28;20215;-77
2023/03/15 05:06:11;;;;;;;2.28;2.00;;;;;7.70;101276.00;;;;5046897;28;20299;-77
2023/03/15 05:08:38;;;;;;;2.55;1.80;;;;;7.70;101282.00;;;;5044100;28;20220;-77
2023/03/15 05:11:06;;;;;;;3.10;2.35;;;;;7.70;101293.00;;;;5043690;28;20199;-77
2023/03/15 05:13:34;;;;;;;2.40;1.92;;;;;7.70;101288.00;;;;5044547;28;20211;-77
2023/03/15 05:16:01;;;;;;;2.03;1.60;;;;;7.70;101289.00;;;;5048013;28;20191;-77
2023/03/15 05:18:28;;;;;;;2.03;1.80;;;;;7.60;101292.00;;;;5043269;28;20219;-77
2023/03/15 05:20:57;;;;;;;2.33;2.13;;;;;7.60;101293.00;;;;5036119;28;20238;-77
2023/03/15 05:23:25;;;;;;;2.40;2.03;;;;;7.60;101301.00;;;;5035424;28;20215;-77
2023/03/15 05:25:54;;;;;;;2.10;1.90;;;;;7.60;101299.00;;;;5045521;28;20269;-77
2023/03/15 05:28:22;;;;;;;4.75;2.25;;;;;7.60;101296.00;;;;5048761;28;20219;-77
2023/03/15 05:30:50;;;;;;;2.20;1.83;;;;;7.60;101304.00;;;;5032587;28;20196;-77
2023/03/15 05:33:18;;;;;;;2.60;2.25;;;;;7.60;101300.00;;;;5046990;28;20218;-77
2023/03/15 05:35:46;;;;;;;1.92;1.75;;;;;7.60;101305.00;;;;5047932;28;20277;-77
2023/03/15 05:38:15;;;;;;;4.03;2.40;;;;;7.60;101309.00;;;;5036648;28;20710;-77
2023/03/15 05:40:43;;;;;;;3.50;1.88;;;;;7.70;101310.00;;;;5046763;28;20290;-77
2023/03/15 05:43:10;;;;;;;3.63;2.35;;;;;7.70;101309.00;;;;5048509;28;20214;-77
2023/03/15 05:45:38;;;;;;;2.58;1.95;;;;;7.70;101320.00;;;;5049690;28;20196;-77
2023/03/15 05:48:06;;;;;;;2.35;2.13;;;;;7.80;101320.00;;;;5047827;28;20690;-77
2023/03/15 05:50:33;;;;;;;2.88;1.85;;;;;7.80;101321.00;;;;5047316;28;20207;-77
2023/03/15 05:53:00;;;;;;;2.28;2.05;;;;;7.80;101335.00;;;;5048292;28;20625;-77
2023/03/15 05:55:29;;;;;;;2.58;2.03;;;;;7.80;101337.00;;;;5034793;28;20204;-77
2023/03/15 05:57:56;;;;;;;2.50;1.80;;;;;7.80;101347.00;;;;5046370;28;20693;-76
2023/03/15 06:00:24;;;;;;;3.80;2.15;;;;;7.80;101346.00;;;;5046689;28;20208;-77
2023/03/15 06:02:51;;;;;;;2.22;1.83;;;;;7.80;101356.00;;;;5047891;28;20661;-77
2023/03/15 06:05:18;;;;;;;2.50;2.30;;;;;7.80;101360.00;;;;5045305;28;20203;-77
2023/03/15 06:07:46;;;;;;;2.10;1.90;;;;;7.80;101372.00;;;;5036654;28;20231;-76
2023/03/15 06:10:13;;;;;;;3.05;1.98;;;;;7.80;101365.00;;;;5036409;28;20204;-77
2023/03/15 06:12:43;;;;;;;2.92;2.30;;;;;7.80;101365.00;;;;5039280;28;20202;-77
2023/03/15 06:15:11;;;;;;;2.42;1.92;;;;;7.80;101372.00;;;;5046678;28;20199;-77
2023/03/15 06:17:39;;;;;;;2.40;2.20;;;;;7.80;101381.00;;;;5048626;28;20230;-76
2023/03/15 06:20:07;;;;;;;2.60;1.90;;;;;7.80;101380.00;;;;5047684;28;20634;-76
2023/03/15 06:22:34;;;;;;;1.90;1.50;;;;;7.80;101382.00;;;;5047266;28;20235;-76
2023/03/15 06:25:02;;;;;;;2.03;1.55;;;;;7.80;101394.00;;;;5045446;28;20204;-77
2023/03/15 06:27:29;;;;;;;3.00;1.77;;;;;7.80;101401.00;;;;5046091;28;20703;-77
2023/03/15 06:29:58;;;;;;;5.53;1.48;;;;;7.80;101405.00;;;;5029168;28;20203;-77
2023/03/15 06:32:25;;;;;;;2.47;1.00;;;;;7.80;101408.00;;;;5041693;28;20208;-78
2023/03/15 06:34:52;;;;;;;2.67;1.20;;;;;7.80;101411.00;;;;5044982;28;20925;-78
2023/03/15 06:37:20;;;;;;;2.63;1.00;;;;;7.90;101414.00;;;;5041698;28;20595;-78
2023/03/15 06:39:49;;;;;;;1.30;0.90;;;;;7.90;101417.00;;;;5039511;28;20216;-80
2023/03/15 06:42:17;;;;;;;2.65;0.80;;;;;7.90;101412.00;;;;5037798;28;20199;-78
2023/03/15 06:44:44;;;;;;;3.17;1.10;;;;;8.00;101422.00;;;;5042397;28;20199;-76
2023/03/15 06:47:13;;;;;;;2.45;1.88;;;;;8.00;101430.00;;;;5028243;28;20303;-78
2023/03/15 06:49:40;;;;;;;2.60;1.60;;;;;8.10;101439.00;;;;5030869;28;20206;-76
2023/03/15 06:52:08;;;;;;;3.17;1.38;;;;;8.10;101442.00;;;;5048548;28;20196;-75
2023/03/15 06:54:36;;;;;;;5.00;1.67;;;;;8.10;101444.00;;;;5050884;28;20203;-75
2023/03/15 06:57:04;;;;;;;1.95;1.40;;;;;8.20;101443.00;;;;5050470;28;20233;-77
2023/03/15 06:59:31;;;;;;;2.83;1.70;;;;;8.20;101456.00;;;;5047273;28;20199;-77
2023/03/15 07:01:59;;;;;;;3.08;1.33;;;;;8.30;101461.00;;;;5037118;28;20616;-77
2023/03/15 07:04:28;;;;;;;2.50;1.27;;;;;8.30;101467.00;;;;5044991;28;20700;-76
2023/03/15 07:06:55;;;;;;;2.97;1.50;;;;;8.40;101469.00;;;;5048978;28;20227;-75
2023/03/15 07:09:22;;;;;;;1.67;1.27;;;;;8.40;101469.00;;;;5049546;28;20203;-78
2023/03/15 07:11:50;;;;;;;3.17;1.42;;;;;8.50;101476.00;;;;5044406;28;20222;-76
2023/03/15 07:14:17;;;;;;;3.20;1.42;;;;;8.50;101479.00;;;;5050988;28;20210;-76
2023/03/15 07:16:47;;;;;;;1.95;1.15;;;;;8.50;101479.00;;;;5051432;28;20202;-76
2023/03/15 07:19:14;;;;;;;1.80;1.23;;;;;8.60;101483.00;;;;5045668;28;20207;-76
2023/03/15 07:21:42;;;;;;;3.83;1.35;;;;;8.60;101484.00;;;;5031752;28;20200;-76
2023/03/15 07:24:10;;;;;;;2.55;1.05;;;;;8.70;101477.00;;;;5042467;28;20199;-76
2023/03/15 07:26:37;;;;;;;2.88;1.17;;;;;8.70;101499.00;;;;5051524;28;20219;-76
2023/03/15 07:29:04;;;;;;;1.30;1.00;;;;;8.70;101501.00;;;;5049677;28;20192;-76
2023/03/15 07:31:31;;;;;;;2.67;1.70;;;;;8.80;101492.00;;;;5050435;28;20204;-76
2023/03/15 07:33:59;;;;;;;2.40;1.45;;;;;8.90;101495.00;;;;5045787;28;20199;-76
2023/03/15 07:36:26;;;;;;;1.80;1.20;;;;;8.90;101499.00;;;;5045105;28;20216;-76
2023/03/15 07:38:55;;;;;;;3.30;1.27;;;;;8.90;101507.00;;;;5047087;28;20231;-76
2023/03/15 07:41:22;;;;;;;2.22;1.42;;;;;9.00;101509.00;;;;5048435;28;20204;-77
2023/03/15 07:43:49;;;;;;;1.85;1.23;;;;;9.00;101511.00;;;;5048725;28;20192;-77
2023/03/15 07:46:17;;;;;;;1.50;0.80;;;;;9.10;101513.00;;;;5049326;28;20669;-76
2023/03/15 07:48:44;;;;;;;1.90;1.40;;;;;9.10;101521.00;;;;5046570;28;20203;-76
2023/03/15 07:51:11;;;;;;;1.50;1.10;;;;;9.20;101520.00;;;;5044946;28;20195;-76
2023/03/15 07:53:39;;;;;;;3.05;1.20;;;;;9.30;101526.00;;;;5041803;28;20238;-76
2023/03/15 07:56:08;;;;;;;2.85;1.10;;;;;9.30;101532.00;;;;5049640;28;20196;-76
2023/03/15 07:58:35;;;;;;;2.63;1.23;;;;;9.40;101542.00;;;;5042835;28;20232;-76
2023/03/15 08:01:02;;;;;;;1.85;0.93;;;;;9.40;101544.00;;;;5048894;28;20661;-76
2023/03/15 08:03:30;;;;;;;2.42;1.05;;;;;9.50;101546.00;;;;5044639;28;20648;-76
2023/03/15 08:05:57;;;;;;;2.38;1.00;;;;;9.60;101547.00;;;;5040983;28;20223;-76
2023/03/15 08:08:25;;;;;;;2.40;0.93;;;;;9.60;101550.00;;;;5045661;28;20246;-76
2023/03/15 08:10:52;;;;;;;2.10;0.82;;;;;9.70;101558.00;;;;5030758;28;20196;-76
2023/03/15 08:13:20;;;;;;;1.58;0.80;;;;;9.80;101562.00;;;;5044202;28;20198;-75
2023/03/15 08:15:49;;;;;;;0.85;0.50;;;;;9.80;101567.00;;;;5050799;28;20294;-76
2023/03/15 08:18:16;;;;;;;2.58;0.73;;;;;9.90;101568.00;;;;5046891;28;20658;-76
2023/03/15 08:20:43;;;;;;;3.22;0.75;;;;;10.00;101569.00;;;;5047845;28;20577;-75
2023/03/15 08:23:15;;;;;;;3.42;0.77;;;;;10.10;101579.00;;;;5049750;28;20203;-76
2023/03/15 08:25:43;;;;;;;3.10;0.82;;;;;10.10;101575.00;;;;5047583;28;20195;-76
2023/03/15 08:28:11;;;;;;;1.67;0.77;;;;;10.20;101582.00;;;;5041018;28;20591;-76
2023/03/15 08:30:40;;;;;;;2.38;0.80;;;;;10.20;101583.00;;;;5046702;28;20208;-75
2023/03/15 08:33:08;;;;;;;4.90;0.88;;;;;10.30;101582.00;;;;5047689;28;20203;-76
2023/03/15 08:35:35;;;;;;;4.32;0.70;;;;;10.40;101584.00;;;;5048447;28;20211;-75
2023/03/15 08:38:03;;;;;;;3.17;0.60;;;;;10.40;101594.00;;;;5048788;28;20223;-75
2023/03/15 08:40:31;;;;;;;2.28;0.88;;;;;10.50;101600.00;;;;5050256;28;20191;-75
2023/03/15 08:42:59;;;;;;;3.72;0.70;;;;;10.50;101595.00;;;;5050069;28;20199;-76
2023/03/15 08:45:27;;;;;;;1.88;0.55;;;;;10.60;101602.00;;;;5038127;28;20207;-76
2023/03/15 08:47:57;;;;;;;1.58;0.63;;;;;10.60;101599.00;;;;5049576;28;20666;-75
2023/03/15 08:50:26;;;;;;;1.38;0.55;;;;;10.70;101615.00;;;;5049557;28;20220;-76
2023/03/15 08:52:54;;;;;;;1.05;0.47;;;;;10.80;101615.00;;;;5046941;28;20994;-76
2023/03/15 08:55:21;;;;;;;1.92;0.30;;;;;10.90;101615.00;;;;5048160;28;20196;-76
2023/03/15 08:57:49;;;;;;;2.33;0.57;;;;;10.90;101607.00;;;;5049618;28;20227;-76
2023/03/15 09:00:19;;;;;;;1.27;0.40;;;;;11.00;101609.00;;;;5046206;28;20842;-76
2023/03/15 09:02:48;;;;;;;1.70;0.47;;;;;11.10;101617.00;;;;5034807;28;20212;-76
2023/03/15 09:05:17;;;;;;;2.88;0.77;;;;;11.10;101613.00;;;;5048394;28;20210;-76
2023/03/15 09:07:45;;;;;;;1.02;0.50;;;;;11.20;101620.00;;;;5049145;28;20223;-76
2023/03/15 09:10:14;;;;;;;3.65;0.52;;;;;11.20;101616.00;;;;5044491;28;20578;-75
2023/03/15 09:12:41;;;;;;;1.83;0.50;;;;;11.30;101619.00;;;;5049324;28;20235;-76
2023/03/15 09:15:10;;;;;;;2.40;0.65;;;;;11.40;101632.00;;;;5047855;28;20572;-75
2023/03/15 09:17:38;;;;;;;3.17;0.60;;;;;11.40;101624.00;;;;5045099;28;20216;-76
2023/03/15 09:20:13;;;;;;;1.13;0.30;;;;;11.50;101630.00;;;;5039479;28;20195;-75
2023/03/15 09:22:42;;;;;;;3.03;0.57;;;;;11.60;101620.00;;;;5044089;28;20199;-75
2023/03/15 09:25:09;;;;;;;4.07;0.93;;;;;11.70;101612.00;;;;5044322;28;20568;-75
2023/03/15 09:27:37;;;;;;;1.15;0.35;;;;;11.70;101617.00;;;;5047961;28;20230;-75
2023/03/15 09:30:06;;;;;;;3.78;0.60;;;;;11.80;101618.00;;;;5046204;28;20509;-75
2023/03/15 09:32:35;;;;;;;2.15;0.30;;;;;11.90;101617.00;;;;5045982;28;20204;-76
2023/03/15 09:35:03;;;;;;;1.13;0.30;;;;;12.00;101621.00;;;;5045781;28;20219;-75
2023/03/15 09:37:30;;;;;;;1.85;0.40;;;;;12.00;101628.00;;;;5048111;28;20282;-76
2023/03/15 09:39:59;;;;;;;2.33;0.47;;;;;12.10;101620.00;;;;5048165;28;20295;-75
2023/03/15 09:42:35;;;;;;;2.95;0.70;;;;;12.20;101626.00;;;;5048996;28;20211;-75
2023/03/15 09:45:12;;;;;;;6.07;0.80;;;;;12.30;101631.00;;;;5045967;28;20195;-76
2023/03/15 09:47:45;;;;;;;0.75;0.20;;;;;12.40;101635.00;;;;5038912;28;20206;-76
2023/03/15 09:50:20;;;;;;;1.13;0.50;;;;;12.40;101632.00;;;;5046219;28;20207;-76
2023/03/15 09:52:51;;;;;;;2.10;0.25;;;;;12.60;101632.00;;;;5047829;28;20199;-76
2023/03/15 09:55:22;;;;;;;2.03;0.52;;;;;12.60;101633.00;;;;5045434;28;20646;-76
2023/03/15 09:57:54;;;;;;;1.60;0.30;;;;;12.70;101636.00;;;;5043532;28;20293;-75
2023/03/15 10:00:23;;;;;;;1.88;0.47;;;;;12.80;101632.00;;;;5045781;28;20199;-76
2023/03/15 10:03:00;;;;;;;1.48;0.40;;;;;12.80;101632.00;;;;5045521;28;20195;-76
2023/03/15 10:05:37;;;;;;;4.30;0.40;;;;;12.90;101642.00;;;;5048704;28;20211;-76
2023/03/15 10:08:10;;;;;;;1.98;0.63;;;;;13.00;101639.00;;;;5043121;28;20234;-75
2023/03/15 10:10:46;;;;;;;2.47;0.47;;;;;13.10;101634.00;;;;5033257;28;20204;-76
2023/03/15 10:13:29;;;;;;;1.80;0.25;;;;;13.10;101633.00;;;;5030167;28;20208;-76
2023/03/15 10:16:06;;;;;;;1.95;0.57;;;;;13.20;101635.00;;;;5045794;28;20206;-76
2023/03/15 10:18:45;;;;;;;2.22;0.45;;;;;13.30;101638.00;;;;5046937;28;20227;-76
2023/03/15 10:21:16;;;;;;;5.65;0.65;;;;;13.40;101631.00;;;;5048849;28;20199;-75
2023/03/15 10:23:49;;;;;;;1.83;0.60;;;;;13.50;101642.00;;;;5047404;28;20261;-76
2023/03/15 10:26:23;;;;;;;3.58;0.70;;;;;13.60;101637.00;;;;5041189;28;20201;-76
2023/03/15 10:28:51;;;;;;;1.98;0.35;;;;;13.70;101644.00;;;;5042553;28;20282;-76
2023/03/15 10:31:22;;;;;;;3.22;0.43;;;;;13.80;101643.00;;;;5048948;28;20210;-76
2023/03/15 10:33:50;;;;;;;1.35;0.43;;;;;13.90;101640.00;;;;5048077;28;20206;-76
2023/03/15 10:36:20;;;;;;;2.50;0.65;;;;;14.00;101639.00;;;;5042721;28;20191;-76
2023/03/15 10:38:49;;;;;;;1.92;0.20;;;;;14.10;101649.00;;;;5040203;28;20315;-76
2023/03/15 10:41:29;;;;;;;1.90;0.63;;;;;14.20;101655.00;;;;5043567;28;20684;-76
2023/03/15 10:44:00;;;;;;;3.40;0.45;;;;;14.30;101651.00;;;;5041162;28;20196;-76
2023/03/15 10:46:28;;;;;;;2.08;0.40;;;;;14.40;101653.00;;;;5041927;28;20203;-76
2023/03/15 10:48:58;;;;;;;1.83;0.30;;;;;14.50;101659.00;;;;5044481;28;20208;-77
2023/03/15 10:51:28;;;;;;;2.55;0.77;;;;;14.50;101658.00;;;;5046276;28;20195;-76
2023/03/15 10:53:58;;;;;;;1.52;0.50;;;;;14.60;101663.00;;;;5047458;28;20242;-76
2023/03/15 10:56:30;;;;;;;0.82;0.40;;;;;14.60;101670.00;;;;5045359;28;20214;-76
2023/03/15 10:59:00;;;;;;;4.97;0.80;;;;;14.70;101675.00;;;;5044546;28;20219;-76
2023/03/15 11:01:33;;;;;;;1.17;0.30;;;;;14.70;101682.00;;;;5041781;28;20199;-75
2023/03/15 11:04:10;;;;;;;2.70;0.30;;;;;14.80;101688.00;;;;5043319;28;20203;-75
2023/03/15 11:06:42;;;;;;;2.85;0.60;;;;;14.80;101680.00;;;;5040864;28;20206;-75
2023/03/15 11:09:11;;;;;;;3.20;0.77;;;;;14.90;101682.00;;;;5044320;28;20545;-75
2023/03/15 11:11:58;;;;;;;3.25;0.43;;;;;14.80;101691.00;;;;5048285;28;20207;-75
2023/03/15 11:14:27;;;;;;;2.10;0.40;;;;;15.00;101700.00;;;;5040256;28;20203;-76
2023/03/15 11:16:56;;;;;;;1.02;0.40;;;;;15.00;101703.00;;;;5041213;28;20208;-76
2023/03/15 11:19:27;;;;;;;6.15;0.52;;;;;15.10;101701.00;;;;5040999;28;20796;-76
2023/03/15 11:21:56;;;;;;;4.15;0.77;;;;;15.20;101702.00;;;;5047378;28;20571;-77
2023/03/15 11:24:28;;;;;;;2.88;0.70;;;;;15.20;101700.00;;;;5042154;28;20224;-77
2023/03/15 11:27:01;;;;;;;1.63;0.60;;;;;15.20;101700.00;;;;5042568;28;20216;-76
2023/03/15 11:29:31;;;;;;;2.55;0.50;;;;;15.30;101701.00;;;;5041664;28;20212;-75
2023/03/15 11:32:01;;;;;;;4.53;0.60;;;;;15.30;101702.00;;;;5044916;28;20196;-75
2023/03/15 11:34:38;;;;;;;2.83;0.47;;;;;15.30;101703.00;;;;5042583;28;20208;-75
2023/03/15 11:37:12;;;;;;;0.93;0.30;;;;;15.40;101696.00;;;;5036530;28;20203;-74
2023/03/15 11:39:44;;;;;;;1.90;0.30;;;;;15.40;101690.00;;;;5042239;28;20219;-75
2023/03/15 11:42:19;;;;;;;1.63;0.38;;;;;15.50;101687.00;;;;5037115;28;20195;-75
2023/03/15 11:44:49;;;;;;;1.35;0.40;;;;;15.50;101692.00;;;;5045885;28;20677;-76
2023/03/15 11:47:23;;;;;;;3.70;0.73;;;;;15.50;101687.00;;;;5049058;28;20200;-75
2023/03/15 11:49:53;;;;;;;0.57;0.28;;;;;15.60;101689.00;;;;5046565;28;20649;-76
2023/03/15 11:52:22;;;;;;;7.45;0.55;;;;;15.60;101692.00;;;;5036440;28;20580;-76
2023/03/15 11:54:51;;;;;;;1.55;0.40;;;;;15.60;101695.00;;;;5037918;28;20187;-75
2023/03/15 11:57:40;;;;;;;0.65;0.20;;;;;15.50;101682.00;;;;5050628;28;20203;-76
2023/03/15 12:00:47;;;;;;;0.80;0.25;;;;;15.60;101683.00;;;;5046751;28;20255;-75
2023/03/15 12:03:34;;;;;;;2.65;0.40;;;;;15.50;101680.00;;;;5050913;28;20266;-76
2023/03/15 12:06:12;;;;;;;2.83;0.45;;;;;15.60;101679.00;;;;5047698;28;20199;-76
2023/03/15 12:08:49;;;;;;;1.00;0.20;;;;;15.60;101688.00;;;;5041128;28;20294;-76
2023/03/15 12:11:38;;;;;;;2.63;0.45;;;;;15.60;101688.00;;;;5049653;28;20782;-76
2023/03/15 12:14:28;;;;;;;0.60;0.28;;;;;15.60;101690.00;;;;5047827;28;20200;-76
2023/03/15 12:17:38;;;;;;;2.25;0.43;;;;;15.60;101698.00;;;;5050348;28;20199;-76
2023/03/15 12:20:17;;;;;;;3.40;0.35;;;;;15.70;101700.00;;;;5048795;28;20224;-75
2023/03/15 12:22:50;;;;;;;1.27;0.45;;;;;15.70;101706.00;;;;5048707;28;20196;-77
2023/03/15 12:25:22;;;;;;;1.17;0.30;;;;;15.70;101705.00;;;;5045225;28;20211;-76